Time;durP1;ratioP1;P1;durP2;ratioP2;P2;SDS_P1;SDS_P2;PMS_P1;PMS_P2;Temp;Humidity;BMP_temperature;BMP_pressure;BME280_temperature;BME280_humidity;BME280_pressure;Samples;Min_cycle;Max_cycle;Signal;HPM_P1;HPM_P2
2022/10/09 00:01:53;;;;;;;;;;;10.00;99.90;;;;;;5034247;28;19975;-63
2022/10/09 00:04:20;;;;;;;;;;;9.90;99.90;;;;;;5034110;28;20460;-62
2022/10/09 00:06:48;;;;;;;;;;;9.90;99.90;;;;;;5034225;28;20372;-63
2022/10/09 00:09:17;;;;;;;;;;;9.90;99.90;;;;;;5034020;28;19972;-63
2022/10/09 00:11:46;;;;;;;;;;;9.90;99.90;;;;;;5034131;28;19969;-62
2022/10/09 00:14:14;;;;;;;;;;;9.90;99.90;;;;;;5034825;28;19975;-63
2022/10/09 00:16:42;;;;;;;;;;;10.00;99.90;;;;;;5033660;28;19979;-63
2022/10/09 00:19:10;;;;;;;;;;;10.00;99.90;;;;;;5033843;28;19969;-63
2022/10/09 00:21:37;;;;;;;;;;;10.00;99.90;;;;;;5033645;28;19975;-62
2022/10/09 00:24:05;;;;;;;;;;;10.10;99.90;;;;;;5033568;28;19972;-63
2022/10/09 00:26:33;;;;;;;;;;;10.10;99.90;;;;;;5033547;28;19975;-63
2022/10/09 00:29:02;;;;;;;;;;;10.00;99.90;;;;;;5033877;28;20465;-63
2022/10/09 00:31:30;;;;;;;;;;;10.00;99.90;;;;;;5047182;28;19968;-63
2022/10/09 00:33:57;;;;;;;;;;;9.90;99.90;;;;;;5053389;28;20066;-63
2022/10/09 00:36:26;;;;;;;;;;;9.80;99.90;;;;;;5053458;28;20019;-63
2022/10/09 00:38:54;;;;;;;;;;;9.80;99.90;;;;;;5053549;28;19995;-63
2022/10/09 00:41:24;;;;;;;;;;;9.80;99.90;;;;;;5053138;28;19975;-63
2022/10/09 00:43:53;;;;;;;;;;;9.90;99.90;;;;;;5053510;28;19969;-63
2022/10/09 00:46:27;;;;;;;;;;;9.90;99.90;;;;;;5053530;28;20494;-63
2022/10/09 00:48:58;;;;;;;;;;;9.90;99.90;;;;;;5034409;28;19975;-63
2022/10/09 00:51:25;;;;;;;;;;;9.90;99.90;;;;;;5032779;28;19975;-63
2022/10/09 00:53:53;;;;;;;;;;;9.90;99.90;;;;;;5033091;28;19968;-63
2022/10/09 00:56:21;;;;;;;;;;;9.90;99.90;;;;;;5033622;28;19973;-63
2022/10/09 00:58:51;;;;;;;;;;;9.90;99.90;;;;;;5033197;28;19975;-63
2022/10/09 01:01:19;;;;;;;;;;;9.90;99.90;;;;;;5033110;28;19969;-62
2022/10/09 01:03:48;;;;;;;;;;;9.90;99.90;;;;;;5033592;28;19980;-62
2022/10/09 01:06:18;;;;;;;;;;;9.90;99.90;;;;;;5032736;28;19975;-63
2022/10/09 01:08:48;;;;;;;;;;;10.00;99.90;;;;;;5032946;28;19975;-63
2022/10/09 01:11:20;;;;;;;;;;;9.90;99.90;;;;;;5032791;28;19969;-63
2022/10/09 01:13:52;;;;;;;;;;;9.90;99.90;;;;;;5032936;28;19979;-63
2022/10/09 01:16:21;;;;;;;;;;;9.90;99.90;;;;;;5032696;28;19972;-62
2022/10/09 01:18:56;;;;;;;;;;;9.90;99.90;;;;;;5032590;28;20067;-62
2022/10/09 01:21:25;;;;;;;;;;;9.70;99.90;;;;;;5033305;28;19975;-62
2022/10/09 01:24:01;;;;;;;;;;;9.60;99.90;;;;;;5032162;28;19968;-62
2022/10/09 01:26:34;;;;;;;;;;;9.60;99.90;;;;;;5039353;28;19964;-63
2022/10/09 01:29:06;;;;;;;;;;;9.40;99.90;;;;;;5052434;28;20071;-63
2022/10/09 01:31:37;;;;;;;;;;;9.40;99.90;;;;;;5038227;28;19969;-62
2022/10/09 01:34:05;;;;;;;;;;;9.20;99.90;;;;;;5032695;28;20022;-62
2022/10/09 01:36:35;;;;;;;;;;;9.20;99.90;;;;;;5032788;28;19974;-62
2022/10/09 01:39:04;;;;;;;;;;;9.00;99.90;;;;;;5044173;28;19975;-63
2022/10/09 01:41:32;;;;;;;;;;;8.90;99.90;;;;;;5051720;28;20003;-63
2022/10/09 01:43:59;;;;;;;;;;;8.80;99.90;;;;;;5052118;28;19968;-63
2022/10/09 01:46:29;;;;;;;;;;;8.80;99.90;;;;;;5051854;28;19979;-63
2022/10/09 01:49:02;;;;;;;;;;;8.80;99.90;;;;;;5051917;28;19974;-63
2022/10/09 01:51:35;;;;;;;;;;;8.70;99.90;;;;;;5051776;28;19968;-63
2022/10/09 01:54:05;;;;;;;;;;;8.70;99.90;;;;;;5051876;28;19972;-63
2022/10/09 01:56:34;;;;;;;;;;;8.70;99.90;;;;;;5051070;28;19974;-63
2022/10/09 01:59:06;;;;;;;;;;;8.70;99.90;;;;;;5051985;28;20018;-63
2022/10/09 02:01:38;;;;;;;;;;;8.70;99.90;;;;;;5052168;28;20330;-63
2022/10/09 02:04:08;;;;;;;;;;;8.90;99.90;;;;;;5056003;28;20357;-63
2022/10/09 02:06:37;;;;;;;;;;;8.90;99.90;;;;;;5055828;28;19972;-62
2022/10/09 02:09:08;;;;;;;;;;;9.00;99.90;;;;;;5055869;28;19967;-62
2022/10/09 02:11:37;;;;;;;;;;;9.10;99.90;;;;;;5055772;28;19968;-62
2022/10/09 02:14:05;;;;;;;;;;;9.10;99.90;;;;;;5055725;28;19975;-63
2022/10/09 02:16:36;;;;;;;;;;;9.20;99.90;;;;;;5055646;28;19978;-63
2022/10/09 02:19:08;;;;;;;;;;;9.20;99.90;;;;;;5055738;28;20345;-63
2022/10/09 02:21:38;;;;;;;;;;;9.20;99.90;;;;;;5055597;28;20077;-63
2022/10/09 02:24:07;;;;;;;;;;;9.10;99.90;;;;;;5055417;28;20079;-62
2022/10/09 02:26:36;;;;;;;;;;;9.10;99.90;;;;;;5055511;28;20364;-62
2022/10/09 02:29:03;;;;;;;;;;;9.20;99.90;;;;;;5054615;28;19968;-63
2022/10/09 02:31:33;;;;;;;;;;;9.20;99.90;;;;;;5041611;28;19968;-63
2022/10/09 02:34:03;;;;;;;;;;;9.20;99.90;;;;;;5035604;28;19973;-63
2022/10/09 02:36:32;;;;;;;;;;;9.20;99.90;;;;;;5035306;28;20449;-62
2022/10/09 02:39:00;;;;;;;;;;;9.10;99.90;;;;;;5035597;28;19976;-62
2022/10/09 02:41:28;;;;;;;;;;;9.00;99.90;;;;;;5035119;28;19975;-62
2022/10/09 02:43:56;;;;;;;;;;;8.90;99.90;;;;;;5035561;28;19972;-62
2022/10/09 02:46:24;;;;;;;;;;;8.90;99.90;;;;;;5035733;28;19978;-62
2022/10/09 02:48:51;;;;;;;;;;;8.90;99.90;;;;;;5035411;28;19980;-63
2022/10/09 02:51:19;;;;;;;;;;;8.90;99.90;;;;;;5035062;28;19972;-63
2022/10/09 02:53:50;;;;;;;;;;;8.90;99.90;;;;;;5045428;28;19974;-62
2022/10/09 02:56:18;;;;;;;;;;;8.90;99.90;;;;;;5055064;28;19975;-64
2022/10/09 02:58:46;;;;;;;;;;;9.00;99.90;;;;;;5055066;28;20467;-63
2022/10/09 03:01:14;;;;;;;;;;;9.00;99.90;;;;;;5045554;28;20346;-62
2022/10/09 03:03:41;;;;;;;;;;;8.80;99.90;;;;;;5043806;28;19979;-63
2022/10/09 03:06:10;;;;;;;;;;;8.70;99.90;;;;;;5054861;28;19968;-63
2022/10/09 03:08:39;;;;;;;;;;;8.70;99.90;;;;;;5054637;28;19979;-62
2022/10/09 03:11:08;;;;;;;;;;;8.60;99.90;;;;;;5054683;28;19975;-62
2022/10/09 03:13:38;;;;;;;;;;;8.50;99.90;;;;;;5054591;28;19972;-63
2022/10/09 03:16:06;;;;;;;;;;;8.60;99.90;;;;;;5054679;28;19968;-63
2022/10/09 03:18:35;;;;;;;;;;;8.60;99.90;;;;;;5054363;28;19969;-63
2022/10/09 03:21:04;;;;;;;;;;;8.70;99.90;;;;;;5052613;28;20318;-63
2022/10/09 03:23:32;;;;;;;;;;;8.70;99.90;;;;;;5054396;28;19968;-63
2022/10/09 03:26:01;;;;;;;;;;;8.80;99.90;;;;;;5054636;28;19968;-63
2022/10/09 03:28:30;;;;;;;;;;;8.80;99.90;;;;;;5054295;28;19968;-63
2022/10/09 03:30:57;;;;;;;;;;;8.90;99.90;;;;;;5044904;28;19975;-62
2022/10/09 03:33:25;;;;;;;;;;;8.80;99.90;;;;;;5034765;28;19973;-62
2022/10/09 03:35:53;;;;;;;;;;;8.70;99.90;;;;;;5034446;28;20471;-63
2022/10/09 03:38:21;;;;;;;;;;;8.60;99.90;;;;;;5048434;28;20018;-63
2022/10/09 03:40:49;;;;;;;;;;;8.70;99.90;;;;;;5054082;28;19975;-62
2022/10/09 03:43:17;;;;;;;;;;;8.60;99.90;;;;;;5054286;28;20356;-62
2022/10/09 03:45:46;;;;;;;;;;;8.50;99.90;;;;;;5054315;28;20444;-62
2022/10/09 03:48:14;;;;;;;;;;;8.30;99.90;;;;;;5053958;28;20599;-63
2022/10/09 03:50:42;;;;;;;;;;;8.30;99.90;;;;;;5053961;28;20334;-63
2022/10/09 03:53:11;;;;;;;;;;;8.20;99.90;;;;;;5054189;28;20009;-63
2022/10/09 03:55:39;;;;;;;;;;;8.10;99.90;;;;;;5053189;28;19968;-63
2022/10/09 03:58:08;;;;;;;;;;;7.90;99.90;;;;;;5053698;28;20428;-63
2022/10/09 04:00:36;;;;;;;;;;;7.80;99.90;;;;;;5053803;28;19972;-62
2022/10/09 04:03:05;;;;;;;;;;;7.90;99.90;;;;;;5053885;28;19992;-62
2022/10/09 04:05:33;;;;;;;;;;;7.90;99.90;;;;;;5053848;28;19975;-61
2022/10/09 04:08:01;;;;;;;;;;;7.90;99.90;;;;;;5053600;28;20071;-61
2022/10/09 04:10:29;;;;;;;;;;;8.00;99.90;;;;;;5053238;28;19975;-62
2022/10/09 04:12:57;;;;;;;;;;;8.10;99.90;;;;;;5052870;28;19968;-63
2022/10/09 04:15:24;;;;;;;;;;;8.10;99.90;;;;;;5053752;28;19974;-63
2022/10/09 04:17:52;;;;;;;;;;;8.20;99.90;;;;;;5053358;28;19982;-63
2022/10/09 04:20:21;;;;;;;;;;;8.20;99.90;;;;;;5053285;28;19972;-62
2022/10/09 04:22:49;;;;;;;;;;;8.20;99.90;;;;;;5053000;28;19968;-62
2022/10/09 04:25:17;;;;;;;;;;;8.30;99.90;;;;;;5052629;28;20000;-62
2022/10/09 04:27:45;;;;;;;;;;;8.20;99.90;;;;;;5052487;28;19968;-62
2022/10/09 04:30:13;;;;;;;;;;;8.20;99.90;;;;;;5050176;28;19972;-62
2022/10/09 04:32:40;;;;;;;;;;;8.20;99.90;;;;;;5043804;28;19964;-63
2022/10/09 04:35:08;;;;;;;;;;;8.20;99.90;;;;;;5053055;28;19975;-62
2022/10/09 04:37:37;;;;;;;;;;;8.40;99.90;;;;;;5054279;28;20482;-62
2022/10/09 04:40:05;;;;;;;;;;;8.40;99.90;;;;;;5052776;28;19974;-62
2022/10/09 04:42:33;;;;;;;;;;;8.30;99.90;;;;;;5053099;28;19968;-62
2022/10/09 04:45:01;;;;;;;;;;;8.30;99.90;;;;;;5049945;28;19972;-62
2022/10/09 04:47:28;;;;;;;;;;;8.30;99.90;;;;;;5032911;28;19968;-63
2022/10/09 04:49:56;;;;;;;;;;;8.10;99.90;;;;;;5032868;28;19983;-62
2022/10/09 04:52:24;;;;;;;;;;;8.20;99.90;;;;;;5032815;28;19968;-62
2022/10/09 04:54:53;;;;;;;;;;;8.10;99.90;;;;;;5032998;28;19975;-62
2022/10/09 04:57:20;;;;;;;;;;;8.10;99.90;;;;;;5032895;28;19968;-62
2022/10/09 04:59:48;;;;;;;;;;;8.20;99.90;;;;;;5032611;28;19968;-62
2022/10/09 05:02:16;;;;;;;;;;;8.10;99.90;;;;;;5033099;28;19972;-62
2022/10/09 05:04:45;;;;;;;;;;;8.20;99.90;;;;;;5032683;28;20063;-62
2022/10/09 05:07:13;;;;;;;;;;;8.00;99.90;;;;;;5032667;28;20487;-62
2022/10/09 05:09:41;;;;;;;;;;;8.00;99.90;;;;;;5032401;28;19976;-62
2022/10/09 05:12:12;;;;;;;;;;;7.90;99.90;;;;;;5031587;28;22458;-62
2022/10/09 05:14:39;;;;;;;;;;;8.00;99.90;;;;;;5032519;28;19968;-62
2022/10/09 05:17:07;;;;;;;;;;;7.80;99.90;;;;;;5032559;28;19974;-62
2022/10/09 05:19:41;;;;;;;;;;;7.80;99.90;;;;;;5032855;28;19975;-62
2022/10/09 05:22:08;;;;;;;;;;;7.60;99.90;;;;;;5032299;28;19972;-63
2022/10/09 05:24:36;;;;;;;;;;;7.50;99.90;;;;;;5031996;28;20471;-63
2022/10/09 05:27:04;;;;;;;;;;;7.50;99.90;;;;;;5032357;28;20437;-63
2022/10/09 05:29:33;;;;;;;;;;;7.40;99.90;;;;;;5031986;28;19969;-63
2022/10/09 05:32:01;;;;;;;;;;;7.30;99.90;;;;;;5049803;28;20054;-63
2022/10/09 05:34:29;;;;;;;;;;;7.40;99.90;;;;;;5052039;28;20007;-63
2022/10/09 05:36:57;;;;;;;;;;;7.30;99.90;;;;;;5041331;28;19980;-62
2022/10/09 05:39:24;;;;;;;;;;;7.20;99.90;;;;;;5032031;28;20066;-62
2022/10/09 05:41:52;;;;;;;;;;;7.10;99.90;;;;;;5032066;28;19987;-62
2022/10/09 05:44:20;;;;;;;;;;;7.40;99.90;;;;;;5031927;28;20063;-63
2022/10/09 05:46:49;;;;;;;;;;;7.50;99.90;;;;;;5032169;28;19974;-63
2022/10/09 05:49:17;;;;;;;;;;;7.50;99.90;;;;;;5031976;28;19968;-62
2022/10/09 05:51:45;;;;;;;;;;;7.60;99.90;;;;;;5038553;28;19968;-61
2022/10/09 05:54:13;;;;;;;;;;;7.80;99.90;;;;;;5042752;28;19977;-62
2022/10/09 05:56:41;;;;;;;;;;;7.90;99.90;;;;;;5041850;28;19963;-62
2022/10/09 05:59:10;;;;;;;;;;;8.00;99.90;;;;;;5031180;28;19971;-62
2022/10/09 06:01:39;;;;;;;;;;;7.90;99.90;;;;;;5031122;28;19971;-62
2022/10/09 06:04:09;;;;;;;;;;;7.90;99.90;;;;;;5031074;28;19965;-62
2022/10/09 06:06:38;;;;;;;;;;;7.90;99.90;;;;;;5031484;28;20493;-62
2022/10/09 06:09:06;;;;;;;;;;;8.00;99.90;;;;;;5037309;28;19964;-62
2022/10/09 06:11:35;;;;;;;;;;;7.90;99.90;;;;;;5046570;28;20055;-63
2022/10/09 06:14:04;;;;;;;;;;;8.00;99.90;;;;;;5041286;28;19968;-63
2022/10/09 06:16:32;;;;;;;;;;;8.10;99.90;;;;;;5031335;28;20356;-62
2022/10/09 06:19:00;;;;;;;;;;;8.10;99.90;;;;;;5037487;28;20497;-62
2022/10/09 06:21:29;;;;;;;;;;;8.10;99.90;;;;;;5031102;28;19978;-62
2022/10/09 06:23:59;;;;;;;;;;;8.20;99.90;;;;;;5030526;28;19973;-62
2022/10/09 06:26:28;;;;;;;;;;;8.30;99.90;;;;;;5031920;28;20063;-62
2022/10/09 06:28:56;;;;;;;;;;;8.50;99.90;;;;;;5033748;28;19964;-63
2022/10/09 06:31:24;;;;;;;;;;;8.50;99.90;;;;;;5040471;28;19971;-63
2022/10/09 06:33:52;;;;;;;;;;;8.50;99.90;;;;;;5030889;28;19964;-63
2022/10/09 06:36:21;;;;;;;;;;;8.60;99.90;;;;;;5031059;28;20004;-63
2022/10/09 06:38:51;;;;;;;;;;;8.60;99.90;;;;;;5033059;28;19979;-62
2022/10/09 06:41:19;;;;;;;;;;;8.50;99.90;;;;;;5030663;28;19972;-63
2022/10/09 06:43:48;;;;;;;;;;;8.60;99.90;;;;;;5050070;28;19968;-62
2022/10/09 06:46:16;;;;;;;;;;;8.60;99.90;;;;;;5035942;28;19964;-63
2022/10/09 06:48:44;;;;;;;;;;;8.60;99.90;;;;;;5043877;28;19979;-63
2022/10/09 06:51:13;;;;;;;;;;;8.50;99.90;;;;;;5045241;28;19976;-62
2022/10/09 06:53:41;;;;;;;;;;;8.30;99.90;;;;;;5046043;28;20003;-61
2022/10/09 06:56:11;;;;;;;;;;;8.20;99.90;;;;;;5045792;28;19972;-62
2022/10/09 06:58:39;;;;;;;;;;;8.20;99.90;;;;;;5046270;28;19991;-62
2022/10/09 07:01:07;;;;;;;;;;;8.20;99.90;;;;;;5044343;28;19998;-62
2022/10/09 07:03:36;;;;;;;;;;;8.30;99.90;;;;;;5045883;28;20554;-62
2022/10/09 07:06:07;;;;;;;;;;;8.30;99.90;;;;;;5045980;28;19976;-62
2022/10/09 07:08:35;;;;;;;;;;;8.30;99.90;;;;;;5045780;28;19972;-61
2022/10/09 07:11:11;;;;;;;;;;;8.40;99.90;;;;;;5044187;28;19976;-62
2022/10/09 07:13:39;;;;;;;;;;;8.40;99.90;;;;;;5045715;28;19975;-62
2022/10/09 07:16:07;;;;;;;;;;;8.50;99.90;;;;;;5045228;28;19972;-62
2022/10/09 07:18:35;;;;;;;;;;;8.60;99.90;;;;;;5045700;28;19978;-63
2022/10/09 07:21:04;;;;;;;;;;;8.70;99.90;;;;;;5043834;28;19977;-62
2022/10/09 07:23:32;;;;;;;;;;;8.80;99.90;;;;;;5045422;28;19983;-63
2022/10/09 07:26:00;;;;;;;;;;;9.00;99.90;;;;;;5027433;28;19978;-61
2022/10/09 07:28:30;;;;;;;;;;;9.10;99.90;;;;;;5045384;28;19976;-62
2022/10/09 07:30:57;;;;;;;;;;;9.30;99.90;;;;;;5043365;28;21289;-63
2022/10/09 07:33:25;;;;;;;;;;;9.40;99.90;;;;;;5044612;28;20634;-62
2022/10/09 07:35:53;;;;;;;;;;;9.60;99.90;;;;;;5045292;28;19995;-63
2022/10/09 07:38:23;;;;;;;;;;;9.70;99.90;;;;;;5045042;28;19982;-62
2022/10/09 07:40:51;;;;;;;;;;;9.90;99.90;;;;;;5043368;28;20878;-62
2022/10/09 07:43:19;;;;;;;;;;;10.00;99.90;;;;;;5044916;28;19970;-62
2022/10/09 07:45:48;;;;;;;;;;;10.10;99.90;;;;;;5044086;28;20330;-62
2022/10/09 07:48:16;;;;;;;;;;;10.30;99.90;;;;;;5045106;28;20440;-62
2022/10/09 07:50:43;;;;;;;;;;;10.40;99.90;;;;;;5043618;28;20230;-62
2022/10/09 07:53:11;;;;;;;;;;;10.50;99.90;;;;;;5044615;28;19990;-64
2022/10/09 07:55:44;;;;;;;;;;;10.70;99.90;;;;;;5045239;28;19976;-62
2022/10/09 07:58:12;;;;;;;;;;;10.70;99.90;;;;;;5045060;28;20050;-62
2022/10/09 08:00:39;;;;;;;;;;;10.90;99.90;;;;;;5042371;28;19993;-62
2022/10/09 08:03:08;;;;;;;;;;;11.00;99.90;;;;;;5044937;28;21047;-63
2022/10/09 08:05:36;;;;;;;;;;;11.20;99.90;;;;;;5044846;28;20003;-64
2022/10/09 08:08:04;;;;;;;;;;;11.30;99.90;;;;;;5044991;28;20062;-63
2022/10/09 08:10:32;;;;;;;;;;;11.40;99.90;;;;;;5043543;28;19972;-62
2022/10/09 08:13:00;;;;;;;;;;;11.50;99.90;;;;;;5044129;28;20480;-63
2022/10/09 08:15:27;;;;;;;;;;;11.70;99.90;;;;;;5044166;28;20470;-63
2022/10/09 08:17:55;;;;;;;;;;;11.80;99.90;;;;;;5044235;28;19979;-63
2022/10/09 08:20:24;;;;;;;;;;;12.10;99.90;;;;;;5044139;28;20695;-63
2022/10/09 08:22:52;;;;;;;;;;;12.20;99.90;;;;;;5042826;28;19987;-63
2022/10/09 08:25:20;;;;;;;;;;;12.30;99.90;;;;;;5044141;28;19968;-62
2022/10/09 08:27:47;;;;;;;;;;;12.50;99.90;;;;;;5042924;28;19972;-63
2022/10/09 08:30:15;;;;;;;;;;;12.60;99.90;;;;;;5043869;28;19964;-62
2022/10/09 08:32:43;;;;;;;;;;;12.70;99.90;;;;;;5042890;28;20437;-62
2022/10/09 08:35:11;;;;;;;;;;;12.70;99.90;;;;;;5044399;28;19983;-61
2022/10/09 08:37:40;;;;;;;;;;;12.90;99.90;;;;;;5043838;28;19987;-62
2022/10/09 08:40:09;;;;;;;;;;;13.00;99.90;;;;;;5043818;28;19976;-63
2022/10/09 08:42:42;;;;;;;;;;;13.30;99.90;;;;;;5042485;28;19967;-63
2022/10/09 08:45:13;;;;;;;;;;;13.30;99.90;;;;;;5043934;28;20349;-62
2022/10/09 08:47:44;;;;;;;;;;;13.20;99.90;;;;;;5043956;28;19990;-63
2022/10/09 08:50:14;;;;;;;;;;;13.50;99.90;;;;;;5043859;28;20453;-63
2022/10/09 08:52:46;;;;;;;;;;;13.60;99.90;;;;;;5042342;28;20735;-63
2022/10/09 08:55:19;;;;;;;;;;;13.70;99.90;;;;;;5043860;28;20386;-63
2022/10/09 08:57:49;;;;;;;;;;;13.80;99.90;;;;;;5042488;28;20449;-62
2022/10/09 09:00:18;;;;;;;;;;;14.00;99.90;;;;;;5042318;28;19975;-63
2022/10/09 09:02:53;;;;;;;;;;;14.10;99.90;;;;;;5041546;28;19968;-63
2022/10/09 09:05:26;;;;;;;;;;;14.10;99.90;;;;;;5042486;28;19987;-64
2022/10/09 09:07:59;;;;;;;;;;;14.20;99.90;;;;;;5042822;28;19976;-62
2022/10/09 09:10:34;;;;;;;;;;;14.20;99.90;;;;;;5043113;28;20448;-62
2022/10/09 09:13:06;;;;;;;;;;;14.40;99.90;;;;;;5043225;28;20356;-62
2022/10/09 09:15:43;;;;;;;;;;;14.80;99.90;;;;;;5043158;28;20642;-62
2022/10/09 09:18:19;;;;;;;;;;;15.00;99.90;;;;;;5043250;28;20029;-63
2022/10/09 09:20:51;;;;;;;;;;;15.30;99.90;;;;;;5041935;28;19968;-63
2022/10/09 09:23:21;;;;;;;;;;;15.50;99.90;;;;;;5042332;28;19968;-63
2022/10/09 09:25:48;;;;;;;;;;;15.70;99.90;;;;;;5042133;28;20479;-62
2022/10/09 09:28:19;;;;;;;;;;;15.60;99.90;;;;;;5043424;28;19974;-63
2022/10/09 09:30:48;;;;;;;;;;;15.70;99.90;;;;;;5041391;28;19974;-63
2022/10/09 09:33:19;;;;;;;;;;;16.10;99.90;;;;;;5042071;28;19968;-63
2022/10/09 09:35:50;;;;;;;;;;;16.10;99.90;;;;;;5043009;28;19967;-63
2022/10/09 09:38:18;;;;;;;;;;;16.00;99.90;;;;;;5041799;28;19974;-63
2022/10/09 09:40:47;;;;;;;;;;;15.80;99.90;;;;;;5041701;28;19976;-62
2022/10/09 09:43:17;;;;;;;;;;;16.20;99.90;;;;;;5043348;28;19974;-63
2022/10/09 09:45:45;;;;;;;;;;;16.40;99.90;;;;;;5043374;28;19980;-63
2022/10/09 09:48:15;;;;;;;;;;;16.50;99.90;;;;;;5043162;28;19971;-63
2022/10/09 09:50:44;;;;;;;;;;;16.50;99.90;;;;;;5041518;28;19967;-62
2022/10/09 09:53:33;;;;;;;;;;;16.50;99.90;;;;;;5042924;28;19986;-63
2022/10/09 09:56:02;;;;;;;;;;;16.70;99.90;;;;;;5042942;28;19981;-63
2022/10/09 09:58:33;;;;;;;;;;;16.70;99.90;;;;;;5042415;28;20431;-63
2022/10/09 10:01:02;;;;;;;;;;;16.90;99.90;;;;;;5041407;28;19975;-62
2022/10/09 10:03:30;;;;;;;;;;;16.90;99.90;;;;;;5042701;28;20045;-63
2022/10/09 10:05:58;;;;;;;;;;;17.20;99.90;;;;;;5042369;28;20021;-63
2022/10/09 10:08:27;;;;;;;;;;;17.30;99.90;;;;;;5042167;28;20440;-63
2022/10/09 10:10:56;;;;;;;;;;;17.50;99.90;;;;;;5041753;28;20442;-63
2022/10/09 10:13:28;;;;;;;;;;;17.60;99.90;;;;;;5042343;28;20081;-63
2022/10/09 10:15:57;;;;;;;;;;;17.80;99.90;;;;;;5042357;28;19975;-63
2022/10/09 10:18:27;;;;;;;;;;;17.90;99.90;;;;;;5042354;28;19970;-64
2022/10/09 10:20:55;;;;;;;;;;;18.10;99.90;;;;;;5040883;28;19986;-64
2022/10/09 10:23:32;;;;;;;;;;;18.30;99.90;;;;;;5044228;28;19997;-63
2022/10/09 10:26:01;;;;;;;;;;;18.60;99.90;;;;;;5046591;28;19977;-64
2022/10/09 10:28:32;;;;;;;;;;;18.70;99.90;;;;;;5046143;28;19974;-63
2022/10/09 10:31:01;;;;;;;;;;;18.70;99.90;;;;;;5044869;28;19983;-63
2022/10/09 10:33:32;;;;;;;;;;;18.90;99.90;;;;;;5046593;28;19975;-64
2022/10/09 10:36:01;;;;;;;;;;;18.80;99.90;;;;;;5046363;28;19971;-64
2022/10/09 10:38:31;;;;;;;;;;;18.90;99.90;;;;;;5046255;28;20025;-65
2022/10/09 10:41:05;;;;;;;;;;;18.90;99.90;;;;;;5044794;28;20622;-63
2022/10/09 10:43:38;;;;;;;;;;;18.90;99.90;;;;;;5046447;28;19967;-64
2022/10/09 10:46:10;;;;;;;;;;;18.90;99.90;;;;;;5046497;28;19982;-64
2022/10/09 10:48:40;;;;;;;;;;;19.10;99.90;;;;;;5047317;28;19971;-63
2022/10/09 10:51:14;;;;;;;;;;;19.50;99.90;;;;;;5043406;28;20452;-64
2022/10/09 10:53:51;;;;;;;;;;;19.70;99.90;;;;;;5046103;28;19974;-64
2022/10/09 10:56:23;;;;;;;;;;;19.90;99.90;;;;;;5045914;28;19967;-62
2022/10/09 10:58:57;;;;;;;;;;;20.00;99.90;;;;;;5044969;28;19975;-64
2022/10/09 11:01:30;;;;;;;;;;;20.00;99.90;;;;;;5044256;28;19972;-64
2022/10/09 11:04:09;;;;;;;;;;;20.10;99.90;;;;;;5045617;28;19970;-63
2022/10/09 11:06:42;;;;;;;;;;;20.30;99.90;;;;;;5046897;28;19986;-64
2022/10/09 11:09:15;;;;;;;;;;;20.20;99.90;;;;;;5046100;28;20382;-63
2022/10/09 11:11:47;;;;;;;;;;;20.30;99.90;;;;;;5044501;28;19970;-63
2022/10/09 11:14:22;;;;;;;;;;;20.80;99.90;;;;;;5045741;28;19967;-64
2022/10/09 11:16:56;;;;;;;;;;;21.10;99.90;;;;;;5045430;28;20335;-63
2022/10/09 11:19:44;;;;;;;;;;;21.20;99.90;;;;;;5045172;28;20686;-64
2022/10/09 11:22:16;;;;;;;;;;;21.40;99.90;;;;;;5038610;28;19974;-64
2022/10/09 11:25:07;;;;;;;;;;;21.10;99.70;;;;;;5045444;28;19967;-63
2022/10/09 11:27:39;;;;;;;;;;;20.80;99.80;;;;;;5045666;28;20021;-63
2022/10/09 11:30:10;;;;;;;;;;;20.70;99.80;;;;;;5045149;28;19979;-64
2022/10/09 11:32:40;;;;;;;;;;;20.70;99.50;;;;;;5044520;28;19979;-63
2022/10/09 11:35:15;;;;;;;;;;;21.10;99.50;;;;;;5044989;28;19966;-64
2022/10/09 11:37:44;;;;;;;;;;;21.10;98.30;;;;;;5045553;28;20013;-63
2022/10/09 11:40:14;;;;;;;;;;;20.70;98.60;;;;;;5045301;28;19967;-64
2022/10/09 11:42:42;;;;;;;;;;;20.80;98.80;;;;;;5044166;28;20010;-64
2022/10/09 11:45:18;;;;;;;;;;;20.50;99.00;;;;;;5045402;28;19974;-64
2022/10/09 11:47:49;;;;;;;;;;;20.30;99.00;;;;;;5043741;28;19974;-63
2022/10/09 11:50:30;;;;;;;;;;;20.10;99.00;;;;;;5045136;28;19998;-64
2022/10/09 11:52:59;;;;;;;;;;;20.40;99.10;;;;;;5044478;28;19975;-64
2022/10/09 11:55:28;;;;;;;;;;;20.70;99.20;;;;;;5044865;28;19982;-64
2022/10/09 11:58:07;;;;;;;;;;;20.80;98.90;;;;;;5044289;28;19975;-64
2022/10/09 12:00:36;;;;;;;;;;;21.00;97.60;;;;;;5044130;28;20013;-63
2022/10/09 12:03:05;;;;;;;;;;;21.20;98.20;;;;;;5045146;28;19979;-64
2022/10/09 12:05:36;;;;;;;;;;;21.20;97.80;;;;;;5045198;28;19976;-64
2022/10/09 12:08:08;;;;;;;;;;;21.40;97.10;;;;;;5044662;28;19974;-63
2022/10/09 12:10:39;;;;;;;;;;;21.60;96.70;;;;;;5043896;28;19975;-63
2022/10/09 12:13:07;;;;;;;;;;;21.60;96.90;;;;;;5044150;28;19982;-63
2022/10/09 12:15:39;;;;;;;;;;;21.70;95.90;;;;;;5044574;28;20002;-64
2022/10/09 12:18:15;;;;;;;;;;;21.70;95.90;;;;;;5044497;28;19983;-64
2022/10/09 12:20:45;;;;;;;;;;;22.00;94.60;;;;;;5043180;28;20340;-63
2022/10/09 12:23:13;;;;;;;;;;;21.60;93.30;;;;;;5044748;28;19996;-63
2022/10/09 12:25:53;;;;;;;;;;;21.50;93.30;;;;;;5043806;28;20420;-63
2022/10/09 12:28:26;;;;;;;;;;;21.30;92.40;;;;;;5044059;28;20763;-63
2022/10/09 12:30:57;;;;;;;;;;;20.80;92.30;;;;;;5041946;28;20016;-64
2022/10/09 12:33:26;;;;;;;;;;;20.90;93.50;;;;;;5044075;28;20448;-64
2022/10/09 12:35:59;;;;;;;;;;;21.20;93.00;;;;;;5043749;28;19970;-64
2022/10/09 12:38:28;;;;;;;;;;;21.20;93.30;;;;;;5043864;28;19976;-64
2022/10/09 12:40:57;;;;;;;;;;;21.80;93.50;;;;;;5041010;28;19978;-63
2022/10/09 12:43:25;;;;;;;;;;;21.80;92.50;;;;;;5044451;28;19965;-63
2022/10/09 12:45:53;;;;;;;;;;;22.00;92.50;;;;;;5037654;28;19971;-64
2022/10/09 12:48:24;;;;;;;;;;;21.80;92.50;;;;;;5032227;28;19973;-64
2022/10/09 12:50:52;;;;;;;;;;;21.80;92.20;;;;;;5032061;28;19967;-63
2022/10/09 12:53:21;;;;;;;;;;;21.40;91.50;;;;;;5031883;28;19967;-63
2022/10/09 12:55:50;;;;;;;;;;;21.40;91.70;;;;;;5032037;28;20069;-64
2022/10/09 12:58:19;;;;;;;;;;;21.70;92.00;;;;;;5034602;28;19978;-65
2022/10/09 13:00:48;;;;;;;;;;;22.20;91.50;;;;;;5031789;28;19968;-64
2022/10/09 13:03:24;;;;;;;;;;;22.30;91.40;;;;;;5059814;22;19956;-62
2022/10/09 13:05:53;;;;;;;;;;;22.40;91.10;;;;;;5051327;28;19967;-63
2022/10/09 13:08:23;;;;;;;;;;;22.50;90.50;;;;;;5052475;28;19966;-63
2022/10/09 13:10:51;;;;;;;;;;;22.30;90.00;;;;;;5052198;28;20055;-63
2022/10/09 13:13:21;;;;;;;;;;;22.30;90.40;;;;;;5055973;28;19980;-63
2022/10/09 13:15:57;;;;;;;;;;;22.50;90.50;;;;;;5072373;28;19968;-63
2022/10/09 13:18:26;;;;;;;;;;;22.60;90.00;;;;;;5072485;28;19982;-63
2022/10/09 13:20:58;;;;;;;;;;;22.70;89.70;;;;;;5071950;28;20146;-63
2022/10/09 13:23:27;;;;;;;;;;;23.00;89.00;;;;;;5072312;28;19972;-63
2022/10/09 13:25:55;;;;;;;;;;;22.90;89.20;;;;;;5072193;28;20361;-63
2022/10/09 13:28:29;;;;;;;;;;;23.20;88.50;;;;;;5072133;28;19966;-63
2022/10/09 13:31:05;;;;;;;;;;;23.40;88.00;;;;;;5071949;28;19973;-63
2022/10/09 13:33:34;;;;;;;;;;;23.10;86.40;;;;;;5072492;28;19976;-63
2022/10/09 13:36:02;;;;;;;;;;;22.90;85.60;;;;;;5072103;28;19978;-63
2022/10/09 13:38:29;;;;;;;;;;;22.40;88.80;;;;;;5071738;28;19978;-63
2022/10/09 13:41:01;;;;;;;;;;;22.10;87.50;;;;;;5072074;28;19991;-63
2022/10/09 13:43:30;;;;;;;;;;;21.80;88.40;;;;;;5072164;28;19971;-63
2022/10/09 13:45:57;;;;;;;;;;;21.80;88.80;;;;;;5071746;28;19971;-63
2022/10/09 13:48:28;;;;;;;;;;;21.60;88.50;;;;;;5071987;28;20024;-63
2022/10/09 13:50:58;;;;;;;;;;;21.70;89.20;;;;;;5071748;28;19971;-63
2022/10/09 13:53:26;;;;;;;;;;;21.80;88.30;;;;;;5071671;28;20348;-63
2022/10/09 13:55:54;;;;;;;;;;;22.00;88.80;;;;;;5071831;28;19971;-63
2022/10/09 13:58:27;;;;;;;;;;;21.90;87.70;;;;;;5071857;28;19969;-63
2022/10/09 14:00:55;;;;;;;;;;;21.50;87.10;;;;;;5071694;28;19972;-63
2022/10/09 14:03:23;;;;;;;;;;;21.40;88.00;;;;;;5071637;28;19971;-63
2022/10/09 14:05:58;;;;;;;;;;;21.80;88.00;;;;;;5071704;28;19966;-63
2022/10/09 14:08:26;;;;;;;;;;;22.10;86.40;;;;;;5072056;28;19970;-63
2022/10/09 14:10:54;;;;;;;;;;;22.10;85.90;;;;;;5071559;28;19967;-63
2022/10/09 14:13:22;;;;;;;;;;;22.10;85.30;;;;;;5071830;28;19971;-63
2022/10/09 14:15:50;;;;;;;;;;;21.90;85.90;;;;;;5071538;28;19985;-63
2022/10/09 14:18:18;;;;;;;;;;;21.80;86.00;;;;;;5071687;28;19976;-63
2022/10/09 14:20:46;;;;;;;;;;;21.30;86.30;;;;;;5071502;28;19988;-63
2022/10/09 14:23:15;;;;;;;;;;;20.70;87.70;;;;;;5071656;28;19973;-63
2022/10/09 14:25:43;;;;;;;;;;;20.00;87.90;;;;;;5071529;28;19972;-63
2022/10/09 14:28:10;;;;;;;;;;;19.60;89.30;;;;;;5071596;28;19967;-65
2022/10/09 14:30:39;;;;;;;;;;;19.20;90.50;;;;;;5071947;28;19970;-65
2022/10/09 14:33:07;;;;;;;;;;;18.90;90.80;;;;;;5071531;28;19966;-65
2022/10/09 14:35:35;;;;;;;;;;;18.60;91.50;;;;;;5071332;28;20447;-65
2022/10/09 14:38:02;;;;;;;;;;;18.40;91.50;;;;;;5071809;28;19971;-64